Time;durP1;ratioP1;P1;durP2;ratioP2;P2;SDS_P1;SDS_P2;PMS_P1;PMS_P2;Temp;Humidity;BMP_temperature;BMP_pressure;BME280_temperature;BME280_humidity;BME280_pressure;Samples;Min_cycle;Max_cycle;Signal;HPM_P1;HPM_P2
2024/02/20 00:01:41;;;;;;;9.57;6.17;;;;;;;7.73;93.76;96451.47;5022484;28;20201;-79
2024/02/20 00:04:08;;;;;;;9.40;6.40;;;;;;;7.96;92.69;96455.84;5021513;28;20718;-79
2024/02/20 00:06:34;;;;;;;12.43;6.27;;;;;;;7.86;93.49;96452.25;5015542;28;20272;-80
2024/02/20 00:08:59;;;;;;;6.73;5.73;;;;;;;7.80;93.61;96457.88;5021398;28;20241;-80
2024/02/20 00:11:25;;;;;;;9.47;6.27;;;;;;;7.83;93.63;96455.88;5019015;28;20294;-80
2024/02/20 00:13:50;;;;;;;11.10;7.23;;;;;;;7.69;94.57;96455.22;5021197;28;20206;-79
2024/02/20 00:16:16;;;;;;;11.27;6.40;;;;;;;7.67;94.34;96458.72;5018395;28;20210;-79
2024/02/20 00:18:42;;;;;;;13.07;6.70;;;;;;;7.57;94.83;96459.47;5003026;28;20191;-80
2024/02/20 00:21:07;;;;;;;9.40;6.07;;;;;;;7.53;94.35;96461.44;5020109;28;20182;-78
2024/02/20 00:23:32;;;;;;;8.27;5.63;;;;;;;7.68;93.64;96469.88;5014188;28;20285;-80
2024/02/20 00:25:58;;;;;;;7.60;5.63;;;;;;;7.64;93.28;96458.94;5019208;28;20217;-79
2024/02/20 00:28:23;;;;;;;10.33;5.40;;;;;;;7.63;92.71;96471.97;5023326;28;20695;-79
2024/02/20 00:30:50;;;;;;;8.30;6.00;;;;;;;7.73;92.46;96464.41;5010898;28;20269;-79
2024/02/20 00:33:15;;;;;;;9.13;6.20;;;;;;;7.60;93.58;96472.19;5016294;28;20221;-79
2024/02/20 00:35:41;;;;;;;10.13;5.80;;;;;;;7.68;93.19;96469.88;5017748;28;20199;-79
2024/02/20 00:38:06;;;;;;;7.93;5.80;;;;;;;7.72;92.45;96463.56;5013289;28;20193;-79
2024/02/20 00:40:32;;;;;;;7.40;5.70;;;;;;;7.62;93.44;96473.72;5021043;28;20291;-80
2024/02/20 00:42:57;;;;;;;8.03;5.43;;;;;;;7.58;93.38;96459.34;5012029;28;20210;-80
2024/02/20 00:45:22;;;;;;;9.90;6.20;;;;;;;7.55;93.76;96469.09;5017078;28;20194;-80
2024/02/20 00:47:48;;;;;;;8.70;5.97;;;;;;;7.66;93.01;96464.81;5012796;28;20697;-79
2024/02/20 00:50:16;;;;;;;9.93;6.20;;;;;;;7.49;94.16;96466.91;5007242;28;20691;-80
2024/02/20 00:52:41;;;;;;;10.80;6.13;;;;;;;7.44;94.18;96463.84;5020084;28;20193;-79
2024/02/20 00:55:07;;;;;;;11.60;6.20;;;;;;;7.54;93.57;96462.28;5004712;28;20198;-79
2024/02/20 00:57:33;;;;;;;8.70;5.23;;;;;;;7.56;93.01;96458.63;5012375;28;20664;-78
2024/02/20 00:59:58;;;;;;;11.43;6.20;;;;;;;7.51;93.14;96458.16;5015164;28;20191;-79
2024/02/20 01:02:24;;;;;;;9.97;4.90;;;;;;;7.56;92.76;96465.56;5007921;28;20187;-80
2024/02/20 01:04:49;;;;;;;7.67;4.53;;;;;;;7.50;92.73;96464.22;5022081;28;20214;-80
2024/02/20 01:07:15;;;;;;;7.60;4.83;;;;;;;7.59;92.54;96466.16;5017464;28;20648;-78
2024/02/20 01:09:40;;;;;;;8.40;4.93;;;;;;;7.52;92.35;96461.56;5019569;28;20218;-80
2024/02/20 01:12:06;;;;;;;10.13;4.47;;;;;;;7.42;92.88;96463.09;5014769;28;20669;-80
2024/02/20 01:14:31;;;;;;;7.63;4.23;;;;;;;7.55;92.09;96469.09;5019020;28;20229;-80
2024/02/20 01:16:57;;;;;;;7.10;4.60;;;;;;;7.59;91.91;96466.16;5011969;28;20187;-78
2024/02/20 01:19:22;;;;;;;9.80;4.93;;;;;;;7.48;92.67;96457.53;5021915;28;20563;-80
2024/02/20 01:21:48;;;;;;;8.10;5.43;;;;;;;7.56;92.25;96462.97;5018989;28;20195;-79
2024/02/20 01:24:13;;;;;;;8.80;5.13;;;;;;;7.43;92.78;96464.78;5007719;28;20203;-79
2024/02/20 01:26:42;;;;;;;10.77;5.50;;;;;;;7.47;93.02;96471.38;5019291;28;20602;-80
2024/02/20 01:29:07;;;;;;;10.33;5.67;;;;;;;7.52;92.61;96467.56;5026636;28;20214;-80
2024/02/20 01:31:32;;;;;;;9.00;5.40;;;;;;;7.46;92.63;96464.56;5019317;28;20185;-80
2024/02/20 01:33:58;;;;;;;10.80;5.53;;;;;;;7.41;93.34;96470.03;5001473;28;20620;-80
2024/02/20 01:36:24;;;;;;;6.63;4.77;;;;;;;7.41;92.93;96476.97;5018622;28;20644;-79
2024/02/20 01:38:49;;;;;;;9.40;5.30;;;;;;;7.47;92.71;96477.38;5019277;28;20187;-79
2024/02/20 01:41:15;;;;;;;12.47;5.70;;;;;;;7.43;92.81;96481.13;5010565;28;20253;-79
2024/02/20 01:43:41;;;;;;;8.17;5.70;;;;;;;7.39;93.13;96483.06;5003525;28;20853;-78
2024/02/20 01:46:07;;;;;;;7.70;4.97;;;;;;;7.46;93.08;96482.66;5016624;28;20186;-80
2024/02/20 01:48:32;;;;;;;11.20;6.30;;;;;;;7.41;92.94;96480.38;5021464;28;20179;-80
2024/02/20 01:50:57;;;;;;;9.07;5.30;;;;;;;7.45;92.98;96476.66;5017095;28;20221;-80
2024/02/20 01:53:23;;;;;;;9.27;5.53;;;;;;;7.38;93.35;96481.41;5020346;28;20230;-80
2024/02/20 01:55:48;;;;;;;8.77;5.00;;;;;;;7.32;93.27;96488.75;5001220;28;20187;-79
2024/02/20 01:58:14;;;;;;;8.17;4.97;;;;;;;7.33;93.28;96478.34;5001359;28;20184;-79
2024/02/20 02:00:39;;;;;;;7.13;4.80;;;;;;;7.41;92.70;96487.28;5015904;28;20183;-79
2024/02/20 02:03:05;;;;;;;7.60;4.83;;;;;;;7.35;93.07;96483.38;5018041;28;20735;-80
2024/02/20 02:05:30;;;;;;;9.00;4.73;;;;;;;7.34;92.54;96486.91;5017664;28;20194;-80
2024/02/20 02:07:59;;;;;;;8.17;4.00;;;;;;;7.30;92.77;96490.63;5011570;28;20218;-79
2024/02/20 02:10:24;;;;;;;6.53;4.20;;;;;;;7.17;93.08;96482.06;5004988;28;20289;-79
2024/02/20 02:12:49;;;;;;;5.80;4.47;;;;;;;7.31;92.47;96487.94;5002468;28;20358;-79
2024/02/20 02:15:15;;;;;;;7.10;4.20;;;;;;;7.38;92.23;96502.09;5005238;28;20585;-80
2024/02/20 02:17:40;;;;;;;6.67;5.13;;;;;;;7.42;91.71;96494.97;5017250;28;20190;-80
2024/02/20 02:20:06;;;;;;;8.23;4.37;;;;;;;7.39;92.14;96495.97;5018416;28;20187;-80
2024/02/20 02:22:31;;;;;;;6.87;3.83;;;;;;;7.37;92.20;96497.84;5022692;28;20244;-80
2024/02/20 02:24:57;;;;;;;6.80;3.77;;;;;;;7.37;91.83;96508.19;5015684;28;20194;-80
2024/02/20 02:27:22;;;;;;;9.03;4.53;;;;;;;7.35;91.74;96502.31;5001241;28;20228;-79
2024/02/20 02:29:47;;;;;;;8.30;4.37;;;;;;;7.35;91.91;96499.72;5001782;28;20210;-80
2024/02/20 02:32:13;;;;;;;5.87;3.87;;;;;;;7.14;93.15;96505.50;5016260;28;20222;-80
2024/02/20 02:34:38;;;;;;;7.77;4.70;;;;;;;7.31;92.83;96512.94;5016178;28;20199;-79
2024/02/20 02:37:03;;;;;;;10.17;4.63;;;;;;;7.38;92.50;96507.25;5018524;28;20674;-79
2024/02/20 02:39:29;;;;;;;6.70;4.53;;;;;;;7.29;92.60;96515.63;5021879;28;20183;-80
2024/02/20 02:41:54;;;;;;;6.40;4.07;;;;;;;7.19;93.00;96508.63;5025036;28;20277;-79
2024/02/20 02:44:20;;;;;;;10.00;4.80;;;;;;;7.27;92.34;96521.84;5017737;28;20225;-78
2024/02/20 02:46:45;;;;;;;5.83;4.10;;;;;;;7.19;92.82;96524.13;5017800;28;20195;-79
2024/02/20 02:49:11;;;;;;;8.80;4.50;;;;;;;7.34;91.72;96517.91;5015476;28;20213;-77
2024/02/20 02:51:36;;;;;;;9.47;4.57;;;;;;;7.32;92.02;96522.34;4999823;28;20186;-80
2024/02/20 02:54:02;;;;;;;7.77;4.20;;;;;;;7.24;92.25;96525.44;5015808;28;20211;-79
2024/02/20 02:56:28;;;;;;;8.60;4.13;;;;;;;7.39;91.54;96529.56;5009868;28;20187;-80
2024/02/20 02:58:54;;;;;;;6.23;4.13;;;;;;;7.33;91.32;96535.19;5023760;28;20210;-80
2024/02/20 03:01:21;;;;;;;9.63;4.10;;;;;;;7.31;91.65;96533.59;5006718;28;20560;-79
2024/02/20 03:03:46;;;;;;;5.10;4.10;;;;;;;7.31;91.41;96533.59;5019020;28;20210;-79
2024/02/20 03:06:12;;;;;;;11.70;4.43;;;;;;;7.29;91.80;96536.31;5000500;28;20695;-80
2024/02/20 03:08:38;;;;;;;7.33;4.67;;;;;;;7.38;91.34;96542.59;5018342;28;20689;-80
2024/02/20 03:11:07;;;;;;;7.53;4.03;;;;;;;7.34;91.16;96536.00;5011762;28;20558;-80
2024/02/20 03:13:35;;;;;;;8.53;4.23;;;;;;;7.23;91.52;96541.88;5019181;28;20286;-79
2024/02/20 03:16:01;;;;;;;8.33;4.00;;;;;;;7.13;92.05;96555.50;5016964;28;20539;-79
2024/02/20 03:18:29;;;;;;;6.77;3.90;;;;;;;7.14;91.43;96547.66;5000714;28;20186;-78
2024/02/20 03:20:55;;;;;;;7.37;3.97;;;;;;;7.21;91.32;96555.81;5019560;28;20452;-78
2024/02/20 03:23:20;;;;;;;8.17;3.50;;;;;;;7.07;91.61;96567.91;5015835;28;20275;-79
2024/02/20 03:25:46;;;;;;;9.07;3.50;;;;;;;7.09;90.98;96560.88;5015850;28;20187;-79
2024/02/20 03:28:13;;;;;;;9.00;3.60;;;;;;;7.20;90.58;96559.34;5017699;28;20304;-78
2024/02/20 03:30:38;;;;;;;7.90;4.00;;;;;;;7.06;90.63;96566.22;5010754;28;20237;-80
2024/02/20 03:33:04;;;;;;;11.90;3.47;;;;;;;7.10;90.34;96572.03;5009671;28;20306;-80
2024/02/20 03:35:29;;;;;;;6.53;2.90;;;;;;;6.98;91.08;96581.44;5017868;28;20244;-79
2024/02/20 03:37:54;;;;;;;7.00;3.07;;;;;;;7.14;90.19;96572.66;5022426;28;20575;-79
2024/02/20 03:40:20;;;;;;;11.20;3.13;;;;;;;6.86;91.17;96577.06;5022743;28;20191;-79
2024/02/20 03:42:45;;;;;;;6.77;2.63;;;;;;;6.97;90.14;96581.50;5002562;28;20272;-80
2024/02/20 03:45:11;;;;;;;5.87;2.87;;;;;;;6.85;90.68;96583.16;5011551;28;20210;-79
2024/02/20 03:47:36;;;;;;;8.03;2.90;;;;;;;6.96;90.01;96582.44;5023342;28;20688;-79
2024/02/20 03:50:01;;;;;;;11.20;3.00;;;;;;;6.78;90.21;96587.03;5004808;28;20227;-80
2024/02/20 03:52:27;;;;;;;11.50;3.63;;;;;;;6.81;89.67;96592.84;5019806;28;20183;-80
2024/02/20 03:54:52;;;;;;;9.43;3.13;;;;;;;6.77;89.81;96591.38;5010201;28;20668;-79
2024/02/20 03:57:17;;;;;;;9.20;3.50;;;;;;;6.73;89.41;96592.53;5020412;28;20560;-80
2024/02/20 03:59:43;;;;;;;7.93;2.60;;;;;;;6.78;89.46;96589.63;5019374;28;20616;-79
2024/02/20 04:02:08;;;;;;;9.20;2.90;;;;;;;6.77;89.38;96600.88;5007025;28;20210;-80
2024/02/20 04:04:34;;;;;;;10.40;3.10;;;;;;;6.77;89.17;96593.13;5008979;28;20582;-80
2024/02/20 04:07:00;;;;;;;8.47;2.73;;;;;;;6.78;89.33;96603.38;5013592;28;20187;-78
2024/02/20 04:09:26;;;;;;;10.43;2.77;;;;;;;6.86;88.79;96604.63;5010721;28;20306;-80
2024/02/20 04:11:51;;;;;;;8.67;2.83;;;;;;;6.91;88.59;96603.41;5011575;28;20273;-80
2024/02/20 04:14:16;;;;;;;11.50;3.10;;;;;;;6.80;88.75;96605.84;5004512;28;20249;-80
2024/02/20 04:16:42;;;;;;;7.60;2.80;;;;;;;6.65;88.04;96609.44;5019981;28;20203;-79
2024/02/20 04:19:07;;;;;;;8.97;2.47;;;;;;;6.69;88.43;96608.28;5021746;28;20183;-79
2024/02/20 04:21:32;;;;;;;11.93;2.50;;;;;;;6.47;87.54;96612.25;5012442;28;20186;-79
2024/02/20 04:23:58;;;;;;;11.50;2.37;;;;;;;6.59;87.37;96608.03;5020736;28;20578;-79
2024/02/20 04:26:23;;;;;;;7.40;2.43;;;;;;;6.39;87.16;96617.06;5009066;28;20191;-79
2024/02/20 04:28:48;;;;;;;11.77;3.20;;;;;;;6.55;86.09;96616.94;5003169;28;20295;-80
2024/02/20 04:31:14;;;;;;;10.20;2.53;;;;;;;6.53;86.71;96624.75;5002768;28;20191;-79
2024/02/20 04:33:39;;;;;;;8.90;2.30;;;;;;;6.48;86.97;96631.13;5024161;28;20294;-80
2024/02/20 04:36:05;;;;;;;9.53;2.57;;;;;;;6.47;86.30;96624.31;5018326;28;20214;-80
2024/02/20 04:38:31;;;;;;;11.97;3.13;;;;;;;6.43;86.37;96628.81;5010853;28;20632;-78
2024/02/20 04:40:56;;;;;;;16.27;2.87;;;;;;;6.46;86.60;96635.56;5011833;28;20207;-79
2024/02/20 04:43:22;;;;;;;12.37;2.80;;;;;;;6.38;86.63;96630.88;5014489;28;20207;-80
2024/02/20 04:45:47;;;;;;;8.67;2.87;;;;;;;6.41;86.79;96633.25;5018767;28;20187;-80
2024/02/20 04:48:14;;;;;;;11.60;2.70;;;;;;;6.45;86.53;96637.31;5019799;28;20245;-79
2024/02/20 04:50:39;;;;;;;11.73;3.00;;;;;;;6.48;86.44;96637.13;5020896;28;20222;-79
2024/02/20 04:53:05;;;;;;;11.70;2.97;;;;;;;6.58;86.35;96636.53;5018608;28;20237;-79
2024/02/20 04:55:30;;;;;;;16.93;3.40;;;;;;;6.50;86.20;96640.44;5017974;28;20630;-79
2024/02/20 04:57:55;;;;;;;14.83;4.30;;;;;;;6.55;86.06;96639.31;5020292;28;20191;-79
2024/02/20 05:00:21;;;;;;;14.23;3.20;;;;;;;6.47;86.35;96637.22;5016233;28;20214;-78
2024/02/20 05:02:46;;;;;;;15.03;4.03;;;;;;;6.44;86.16;96639.97;5011450;28;20268;-79
2024/02/20 05:05:12;;;;;;;10.17;3.07;;;;;;;6.48;86.16;96644.84;5009762;28;20238;-78
2024/02/20 05:07:38;;;;;;;10.87;3.07;;;;;;;6.46;85.86;96643.31;5025361;28;20186;-79
2024/02/20 05:10:06;;;;;;;8.33;3.57;;;;;;;6.49;85.87;96648.25;5017182;28;20219;-79
2024/02/20 05:12:31;;;;;;;7.80;2.93;;;;;;;6.47;86.07;96645.78;5007767;28;20187;-79
2024/02/20 05:14:56;;;;;;;13.33;3.00;;;;;;;6.47;85.67;96648.38;5009796;28;20198;-79
2024/02/20 05:17:22;;;;;;;10.70;2.53;;;;;;;6.44;85.64;96639.97;5017587;28;20241;-79
2024/02/20 05:19:47;;;;;;;11.17;3.23;;;;;;;6.52;85.39;96642.91;5018994;28;20253;-78
2024/02/20 05:22:13;;;;;;;16.77;2.83;;;;;;;6.44;85.68;96648.53;5008739;28;20203;-78
2024/02/20 05:24:41;;;;;;;12.63;2.80;;;;;;;6.34;85.37;96647.47;5016839;28;20347;-79
2024/02/20 05:27:07;;;;;;;8.13;2.70;;;;;;;6.38;85.43;96642.94;5007902;28;20199;-79
2024/02/20 05:29:32;;;;;;;7.57;2.77;;;;;;;6.37;85.36;96642.13;5019139;28;20277;-79
2024/02/20 05:31:58;;;;;;;14.67;3.30;;;;;;;6.36;85.08;96650.78;5009951;28;20183;-79
2024/02/20 05:34:23;;;;;;;9.13;2.60;;;;;;;6.41;85.00;96648.75;5014057;28;20203;-79
2024/02/20 05:36:48;;;;;;;12.23;2.93;;;;;;;6.35;84.92;96651.69;5015074;28;20198;-80
2024/02/20 05:39:14;;;;;;;11.10;2.93;;;;;;;6.33;84.65;96648.38;5003131;28;20205;-79
2024/02/20 05:41:39;;;;;;;14.37;3.43;;;;;;;6.32;84.85;96651.88;5007108;28;20237;-80
2024/02/20 05:44:05;;;;;;;11.13;3.10;;;;;;;6.22;85.06;96646.47;5022471;28;20222;-79
2024/02/20 05:46:32;;;;;;;10.23;2.47;;;;;;;6.15;85.28;96652.09;5017785;28;20190;-79
2024/02/20 05:48:57;;;;;;;13.57;3.13;;;;;;;6.18;84.49;96649.31;5009667;28;20202;-80
2024/02/20 05:51:23;;;;;;;10.50;2.80;;;;;;;6.28;84.04;96657.34;5004297;28;20734;-80
2024/02/20 05:53:52;;;;;;;12.37;3.23;;;;;;;6.26;84.26;96647.09;5014530;28;20214;-79
2024/02/20 05:56:18;;;;;;;11.67;3.20;;;;;;;6.05;84.41;96649.25;5016433;28;20187;-79
2024/02/20 05:58:44;;;;;;;10.17;2.97;;;;;;;6.15;84.32;96652.91;5010347;28;20182;-79
2024/02/20 06:01:09;;;;;;;16.77;3.73;;;;;;;6.09;84.39;96655.03;5002496;28;20182;-80
2024/02/20 06:03:36;;;;;;;11.43;4.10;;;;;;;6.00;84.90;96655.59;4996991;28;20214;-80
2024/02/20 06:06:01;;;;;;;15.20;3.43;;;;;;;6.11;84.73;96651.47;5015817;28;20864;-79
2024/02/20 06:08:26;;;;;;;14.17;3.30;;;;;;;6.12;84.24;96658.28;5014593;28;20183;-80
2024/02/20 06:10:52;;;;;;;11.33;3.30;;;;;;;6.08;84.77;96668.84;5010031;28;20643;-79
2024/02/20 06:13:17;;;;;;;11.00;3.07;;;;;;;6.07;84.69;96664.63;5013827;28;20211;-80
2024/02/20 06:15:42;;;;;;;12.97;3.67;;;;;;;6.10;84.68;96672.19;5002968;28;20728;-79
2024/02/20 06:18:08;;;;;;;7.17;3.10;;;;;;;6.07;84.73;96668.03;5014679;28;20187;-79
2024/02/20 06:20:33;;;;;;;17.27;3.30;;;;;;;6.12;84.70;96670.34;5004574;28;20622;-80
2024/02/20 06:22:59;;;;;;;8.03;3.77;;;;;;;6.06;84.89;96674.09;5015116;28;20967;-80
2024/02/20 06:25:27;;;;;;;15.60;3.27;;;;;;;6.10;84.90;96677.34;5004748;28;20195;-80
2024/02/20 06:27:54;;;;;;;8.53;3.40;;;;;;;5.96;85.33;96681.56;5007320;28;20244;-80
2024/02/20 06:30:21;;;;;;;12.83;2.97;;;;;;;6.05;84.85;96682.78;5003934;28;20245;-79
2024/02/20 06:32:47;;;;;;;15.97;3.30;;;;;;;6.16;84.43;96682.94;5005681;28;20210;-80
2024/02/20 06:35:12;;;;;;;10.67;3.00;;;;;;;6.22;83.96;96685.16;5012568;28;20241;-79
2024/02/20 06:37:37;;;;;;;15.70;4.13;;;;;;;6.17;84.36;96682.00;5018511;28;20213;-80
2024/02/20 06:40:04;;;;;;;9.37;3.00;;;;;;;6.15;84.74;96681.28;5019803;28;20217;-80
2024/02/20 06:42:30;;;;;;;8.20;2.53;;;;;;;6.21;84.00;96693.00;5005882;28;20882;-79
2024/02/20 06:44:56;;;;;;;32.60;11.83;;;;;;;5.97;84.99;96685.81;5017596;28;20203;-78
2024/02/20 06:47:21;;;;;;;14.50;4.70;;;;;;;6.06;84.70;96688.75;5015285;28;20187;-78
2024/02/20 06:49:47;;;;;;;45.30;15.40;;;;;;;6.32;83.84;96698.31;5019754;28;20230;-78
2024/02/20 06:52:12;;;;;;;33.57;12.77;;;;;;;6.35;83.63;96695.53;5014466;28;20193;-77
2024/02/20 06:54:37;;;;;;;26.13;9.53;;;;;;;6.34;83.80;96704.22;5019045;28;20233;-78
2024/02/20 06:57:03;;;;;;;15.83;5.77;;;;;;;6.43;83.47;96702.81;5021888;28;20198;-78
2024/02/20 06:59:28;;;;;;;15.57;7.10;;;;;;;6.41;83.55;96702.09;5008105;28;20577;-77
2024/02/20 07:01:54;;;;;;;14.33;4.13;;;;;;;6.55;83.45;96709.00;5014451;28;20187;-79
2024/02/20 07:04:19;;;;;;;11.27;5.83;;;;;;;6.45;83.28;96711.31;5013646;28;20215;-80
2024/02/20 07:06:44;;;;;;;18.43;4.67;;;;;;;6.46;83.01;96708.66;5010152;28;20324;-79
2024/02/20 07:09:10;;;;;;;18.70;7.17;;;;;;;6.46;82.81;96710.41;5003010;28;20215;-79
2024/02/20 07:11:35;;;;;;;10.03;4.73;;;;;;;6.32;83.33;96712.97;4999769;28;20191;-79
2024/02/20 07:14:01;;;;;;;17.13;6.17;;;;;;;6.38;82.57;96707.47;5012420;28;20354;-78
2024/02/20 07:16:27;;;;;;;19.07;3.97;;;;;;;6.39;82.46;96719.44;5000773;28;20195;-78
2024/02/20 07:18:52;;;;;;;9.23;3.70;;;;;;;6.30;82.77;96725.97;5013257;28;20197;-78
2024/02/20 07:21:17;;;;;;;14.27;3.30;;;;;;;6.41;82.86;96723.56;5018786;28;20192;-79
2024/02/20 07:23:43;;;;;;;13.53;3.67;;;;;;;6.61;82.27;96731.84;5015817;28;20225;-79
2024/02/20 07:26:08;;;;;;;12.73;3.00;;;;;;;6.60;82.37;96730.19;5020129;28;20183;-78
2024/02/20 07:28:33;;;;;;;7.93;3.07;;;;;;;6.58;82.16;96737.19;5015083;28;20194;-78
2024/02/20 07:30:59;;;;;;;14.00;4.17;;;;;;;6.69;82.27;96738.19;5018941;28;20191;-78
2024/02/20 07:33:26;;;;;;;10.83;3.30;;;;;;;6.79;81.59;96733.28;5016209;28;20210;-78
2024/02/20 07:35:51;;;;;;;19.37;4.40;;;;;;;6.90;81.39;96741.19;5002163;28;20663;-78
2024/02/20 07:38:16;;;;;;;15.03;4.37;;;;;;;6.89;81.38;96744.72;5017038;28;20194;-79
2024/02/20 07:40:42;;;;;;;14.23;4.10;;;;;;;6.90;81.49;96746.38;5015716;28;20327;-79
2024/02/20 07:43:07;;;;;;;15.53;3.63;;;;;;;7.05;81.19;96740.22;5007923;28;20227;-79
2024/02/20 07:45:32;;;;;;;25.40;16.03;;;;;;;6.99;81.13;96738.03;5016198;28;20186;-78
2024/02/20 07:47:58;;;;;;;21.80;13.87;;;;;;;6.90;81.15;96738.63;5017443;28;20280;-79
2024/02/20 07:50:23;;;;;;;17.43;9.50;;;;;;;7.07;80.69;96743.56;5006317;28;20211;-79
2024/02/20 07:52:48;;;;;;;13.37;5.20;;;;;;;7.10;80.42;96748.53;4999959;28;20730;-80
2024/02/20 07:55:14;;;;;;;14.70;3.73;;;;;;;7.31;80.07;96750.66;5015040;28;20195;-79
2024/02/20 07:57:39;;;;;;;12.10;4.10;;;;;;;7.35;79.91;96752.97;5018909;28;20207;-78
2024/02/20 08:00:05;;;;;;;14.57;4.50;;;;;;;7.29;80.50;96760.25;5003284;28;20328;-80
2024/02/20 08:02:31;;;;;;;22.50;9.03;;;;;;;7.41;79.73;96756.06;5016017;28;20183;-79
2024/02/20 08:04:56;;;;;;;10.53;3.97;;;;;;;7.26;79.72;96757.88;5005867;28;20203;-79
2024/02/20 08:07:22;;;;;;;18.00;5.90;;;;;;;7.66;79.29;96764.72;5001721;28;20392;-77
2024/02/20 08:09:48;;;;;;;18.20;12.40;;;;;;;7.72;79.14;96770.44;5018451;28;20224;-77
2024/02/20 08:12:14;;;;;;;20.67;8.63;;;;;;;7.72;78.84;96771.25;5006228;28;20835;-77
2024/02/20 08:14:39;;;;;;;17.30;4.67;;;;;;;7.58;79.86;96766.97;5017077;28;20222;-76
2024/02/20 08:17:05;;;;;;;15.07;5.50;;;;;;;7.76;79.34;96771.88;5020186;28;20214;-77
2024/02/20 08:19:30;;;;;;;16.87;6.30;;;;;;;7.45;79.06;96768.69;5013843;28;20677;-78
2024/02/20 08:21:56;;;;;;;17.00;4.67;;;;;;;7.64;78.47;96770.91;5016910;28;20194;-77
2024/02/20 08:24:21;;;;;;;15.30;4.50;;;;;;;7.49;79.62;96770.16;5021647;28;20621;-78
2024/02/20 08:26:46;;;;;;;12.63;4.93;;;;;;;7.86;78.68;96772.91;5022397;28;20206;-78
2024/02/20 08:29:12;;;;;;;15.60;4.30;;;;;;;7.93;78.91;96774.19;5018030;28;20206;-78
2024/02/20 08:31:42;;;;;;;14.80;5.27;;;;;;;8.06;78.52;96780.22;5017789;28;20210;-79
2024/02/20 08:34:07;;;;;;;8.67;4.40;;;;;;;8.01;78.59;96778.84;5017883;28;20211;-79
2024/02/20 08:36:33;;;;;;;15.67;5.07;;;;;;;8.07;78.16;96781.84;5002965;28;20190;-77
2024/02/20 08:38:59;;;;;;;14.23;4.70;;;;;;;8.21;77.20;96784.34;5019906;28;20559;-78
2024/02/20 08:41:24;;;;;;;14.37;4.30;;;;;;;8.32;77.58;96788.00;5006547;28;20195;-78
2024/02/20 08:43:51;;;;;;;15.17;5.60;;;;;;;8.25;77.45;96784.97;5013371;28;20210;-79
2024/02/20 08:46:16;;;;;;;18.27;5.13;;;;;;;8.32;77.17;96785.41;5009427;28;20183;-77
2024/02/20 08:48:42;;;;;;;20.63;5.50;;;;;;;8.46;76.50;96790.47;5019007;28;20199;-78
2024/02/20 08:51:07;;;;;;;16.27;4.83;;;;;;;8.56;76.67;96778.56;5010872;28;20206;-79
2024/02/20 08:53:32;;;;;;;14.83;4.97;;;;;;;8.33;76.28;96789.63;5004070;28;20214;-78
2024/02/20 08:55:58;;;;;;;20.57;5.47;;;;;;;8.59;75.98;96785.31;5013624;28;20287;-78
2024/02/20 08:58:23;;;;;;;16.10;4.57;;;;;;;8.44;75.81;96784.59;5021950;28;20197;-79
2024/02/20 09:00:49;;;;;;;15.90;5.13;;;;;;;8.53;75.31;96794.31;5009786;28;20191;-80
2024/02/20 09:03:14;;;;;;;17.20;4.83;;;;;;;8.50;75.38;96794.53;5008616;28;20209;-80
2024/02/20 09:05:40;;;;;;;16.53;5.47;;;;;;;8.64;75.44;96794.41;5020335;28;20257;-80
2024/02/20 09:08:06;;;;;;;12.83;4.60;;;;;;;8.25;76.06;96795.31;5022383;28;20244;-78
2024/02/20 09:10:32;;;;;;;13.30;5.10;;;;;;;8.56;75.79;96799.28;5001216;28;20698;-78
2024/02/20 09:12:58;;;;;;;22.87;5.47;;;;;;;8.67;74.97;96795.97;5014979;28;20211;-79
2024/02/20 09:15:24;;;;;;;18.13;6.63;;;;;;;8.62;75.43;96800.63;5021929;28;20261;-79
2024/02/20 09:17:49;;;;;;;17.37;5.13;;;;;;;8.84;74.91;96803.41;5012004;28;20670;-79
2024/02/20 09:20:15;;;;;;;35.07;12.53;;;;;;;8.69;73.93;96799.28;5003456;28;20244;-77
2024/02/20 09:22:40;;;;;;;18.60;8.93;;;;;;;9.16;73.95;96802.91;5017427;28;20734;-78
2024/02/20 09:25:07;;;;;;;12.13;4.80;;;;;;;9.44;72.53;96804.38;5022414;28;20199;-78
2024/02/20 09:27:32;;;;;;;19.77;5.60;;;;;;;9.42;72.35;96808.84;5014566;28;20202;-78
2024/02/20 09:29:58;;;;;;;12.93;5.87;;;;;;;9.46;71.97;96802.50;5016993;28;20199;-77
2024/02/20 09:32:23;;;;;;;21.20;5.70;;;;;;;9.09;71.55;96805.09;5016579;28;20195;-78
2024/02/20 09:34:49;;;;;;;13.13;5.37;;;;;;;9.11;71.38;96810.19;5008199;28;20260;-78
2024/02/20 09:37:14;;;;;;;16.00;5.97;;;;;;;9.17;71.12;96812.34;5016932;28;20191;-78
2024/02/20 09:39:39;;;;;;;12.10;4.87;;;;;;;9.03;70.91;96808.13;5018895;28;20257;-78
2024/02/20 09:42:08;;;;;;;15.77;5.40;;;;;;;9.19;71.30;96808.72;5017862;28;20270;-78
2024/02/20 09:44:36;;;;;;;13.03;4.40;;;;;;;8.80;70.23;96807.13;5014983;28;20215;-79
2024/02/20 09:47:02;;;;;;;15.03;4.77;;;;;;;9.12;70.70;96804.91;5014586;28;20191;-77
2024/02/20 09:49:28;;;;;;;12.23;4.70;;;;;;;9.48;70.19;96798.03;5023377;28;20248;-79
2024/02/20 09:51:55;;;;;;;11.90;4.20;;;;;;;9.43;70.56;96795.75;5019289;28;20186;-76
2024/02/20 09:54:20;;;;;;;17.60;4.73;;;;;;;9.20;69.71;96805.19;5017294;28;20214;-78
2024/02/20 09:56:45;;;;;;;14.00;4.47;;;;;;;9.35;68.90;96803.25;5006699;28;20187;-77
2024/02/20 09:59:11;;;;;;;15.33;4.80;;;;;;;9.65;69.44;96808.03;5008198;28;20183;-77
2024/02/20 10:01:37;;;;;;;14.40;4.20;;;;;;;9.76;68.70;96805.47;5014439;28;20220;-77
2024/02/20 10:04:04;;;;;;;19.77;5.50;;;;;;;9.65;69.13;96806.25;5017221;28;20298;-78
2024/02/20 10:06:30;;;;;;;16.10;4.53;;;;;;;9.89;67.08;96814.03;5004520;28;20278;-77
2024/02/20 10:08:56;;;;;;;14.67;4.43;;;;;;;10.06;66.23;96814.53;5016742;28;20241;-77
2024/02/20 10:11:23;;;;;;;13.47;3.57;;;;;;;9.96;65.29;96810.97;5008701;28;20219;-77
2024/02/20 10:13:52;;;;;;;10.40;4.03;;;;;;;10.16;65.29;96808.56;5004467;28;20206;-77
2024/02/20 10:16:18;;;;;;;18.10;3.97;;;;;;;10.15;65.52;96813.84;5005241;28;20219;-77
2024/02/20 10:18:44;;;;;;;10.40;4.30;;;;;;;9.99;65.89;96818.53;5022755;28;20573;-78
2024/02/20 10:21:11;;;;;;;9.67;3.60;;;;;;;9.92;65.50;96818.97;5009353;28;20191;-77
2024/02/20 10:23:37;;;;;;;13.63;4.13;;;;;;;9.81;64.43;96821.53;5017797;28;20548;-78
2024/02/20 10:26:02;;;;;;;15.23;4.43;;;;;;;9.84;65.25;96818.72;5017742;28;20217;-79
2024/02/20 10:28:28;;;;;;;13.80;4.57;;;;;;;9.71;65.65;96824.88;5020724;28;20609;-78
2024/02/20 10:30:55;;;;;;;14.37;3.87;;;;;;;9.43;67.02;96828.63;5017095;28;20237;-78
2024/02/20 10:33:21;;;;;;;12.47;4.03;;;;;;;9.84;66.32;96820.47;5015712;28;20222;-77
2024/02/20 10:35:47;;;;;;;14.40;4.07;;;;;;;9.82;65.80;96823.19;5015797;28;20202;-78
2024/02/20 10:38:18;;;;;;;15.67;5.93;;;;;;;9.95;64.88;96823.09;5014811;28;20199;-77
2024/02/20 10:40:43;;;;;;;17.37;4.67;;;;;;;9.77;65.70;96822.69;5017424;28;20286;-78
2024/02/20 10:43:11;;;;;;;13.87;4.20;;;;;;;9.96;64.31;96818.75;5017206;28;20703;-78
2024/02/20 10:45:36;;;;;;;17.47;5.13;;;;;;;10.11;64.20;96828.00;5004434;28;20198;-77
2024/02/20 10:48:03;;;;;;;10.97;3.67;;;;;;;10.27;63.08;96818.16;5005145;28;20210;-78
2024/02/20 10:50:31;;;;;;;11.17;3.40;;;;;;;10.23;61.00;96815.91;5016190;28;20214;-76
2024/02/20 10:53:00;;;;;;;12.27;3.50;;;;;;;10.08;61.75;96815.25;5002449;28;20210;-78
2024/02/20 10:55:26;;;;;;;14.90;5.57;;;;;;;10.19;61.84;96815.28;5006384;28;20183;-78
2024/02/20 10:57:52;;;;;;;11.27;3.57;;;;;;;9.47;62.71;96807.59;5017255;28;20671;-79
2024/02/20 11:00:18;;;;;;;12.77;4.17;;;;;;;9.85;61.43;96812.59;5002715;28;20175;-78
2024/02/20 11:02:46;;;;;;;13.97;3.70;;;;;;;10.12;61.87;96811.50;5015282;28;20278;-79
2024/02/20 11:05:14;;;;;;;15.47;3.43;;;;;;;9.84;61.17;96813.53;5014162;28;20215;-77
2024/02/20 11:07:40;;;;;;;10.00;3.20;;;;;;;10.21;61.90;96803.00;5018336;28;20215;-77
2024/02/20 11:10:19;;;;;;;12.77;3.67;;;;;;;10.35;61.69;96805.44;5016500;28;20333;-79
2024/02/20 11:12:45;;;;;;;9.83;3.50;;;;;;;10.25;61.26;96801.88;5015963;28;20539;-79
2024/02/20 11:15:17;;;;;;;12.37;3.33;;;;;;;10.24;60.31;96792.41;4999524;28;20266;-77
2024/02/20 11:17:42;;;;;;;8.70;2.67;;;;;;;10.24;61.00;96796.78;5015948;28;20194;-76
2024/02/20 11:20:15;;;;;;;11.93;4.00;;;;;;;10.33;59.55;96796.91;5012963;28;20198;-76
2024/02/20 11:22:40;;;;;;;10.27;3.27;;;;;;;10.65;59.37;96798.84;5013370;28;20656;-77
2024/02/20 11:25:17;;;;;;;8.53;3.13;;;;;;;10.56;58.80;96794.38;5030254;28;20198;-77
2024/02/20 11:27:45;;;;;;;7.50;2.67;;;;;;;10.17;57.87;96791.22;5000085;28;20249;-78
2024/02/20 11:30:24;;;;;;;7.30;2.80;;;;;;;9.80;59.65;96800.88;5017533;28;20202;-77